sensor_id;sensor_type;location;lat;lon;timestamp;P1;durP1;ratioP1;P2;durP2;ratioP2
577;SDS011;275;48.492;9.214;2023-05-25T00:02:22;10.75;;;3.83;;
577;SDS011;275;48.492;9.214;2023-05-25T00:04:49;7.75;;;4.35;;
577;SDS011;275;48.492;9.214;2023-05-25T00:07:16;5.75;;;3.53;;
577;SDS011;275;48.492;9.214;2023-05-25T00:09:43;6.53;;;3.50;;
577;SDS011;275;48.492;9.214;2023-05-25T00:12:11;7.05;;;3.42;;
577;SDS011;275;48.492;9.214;2023-05-25T00:14:39;8.75;;;4.65;;
577;SDS011;275;48.492;9.214;2023-05-25T00:17:06;9.93;;;3.83;;
577;SDS011;275;48.492;9.214;2023-05-25T00:19:33;7.53;;;3.85;;
577;SDS011;275;48.492;9.214;2023-05-25T00:22:00;5.90;;;3.47;;
577;SDS011;275;48.492;9.214;2023-05-25T00:24:28;8.57;;;3.90;;
577;SDS011;275;48.492;9.214;2023-05-25T00:26:55;5.30;;;3.80;;
577;SDS011;275;48.492;9.214;2023-05-25T00:29:22;8.82;;;3.75;;
577;SDS011;275;48.492;9.214;2023-05-25T00:31:51;7.78;;;3.70;;
577;SDS011;275;48.492;9.214;2023-05-25T00:34:18;4.95;;;3.85;;
577;SDS011;275;48.492;9.214;2023-05-25T00:36:45;8.30;;;3.40;;
577;SDS011;275;48.492;9.214;2023-05-25T00:39:13;7.22;;;3.78;;
577;SDS011;275;48.492;9.214;2023-05-25T00:41:41;8.45;;;3.42;;
577;SDS011;275;48.492;9.214;2023-05-25T00:44:08;7.72;;;3.80;;
577;SDS011;275;48.492;9.214;2023-05-25T00:46:36;8.25;;;3.80;;
577;SDS011;275;48.492;9.214;2023-05-25T00:49:04;8.93;;;4.00;;
577;SDS011;275;48.492;9.214;2023-05-25T00:51:33;8.77;;;3.88;;
577;SDS011;275;48.492;9.214;2023-05-25T00:54:01;6.63;;;4.03;;
577;SDS011;275;48.492;9.214;2023-05-25T00:56:29;9.05;;;4.00;;
577;SDS011;275;48.492;9.214;2023-05-25T00:58:59;8.15;;;3.58;;
577;SDS011;275;48.492;9.214;2023-05-25T01:01:30;5.43;;;3.70;;
577;SDS011;275;48.492;9.214;2023-05-25T01:04:05;9.13;;;3.70;;
577;SDS011;275;48.492;9.214;2023-05-25T01:06:34;6.35;;;4.10;;
577;SDS011;275;48.492;9.214;2023-05-25T01:09:05;7.07;;;4.15;;
577;SDS011;275;48.492;9.214;2023-05-25T01:11:37;10.45;;;4.28;;
577;SDS011;275;48.492;9.214;2023-05-25T01:14:09;9.43;;;4.10;;
577;SDS011;275;48.492;9.214;2023-05-25T01:16:36;12.48;;;4.35;;
577;SDS011;275;48.492;9.214;2023-05-25T01:19:05;8.77;;;4.05;;
577;SDS011;275;48.492;9.214;2023-05-25T01:21:34;8.50;;;4.35;;
577;SDS011;275;48.492;9.214;2023-05-25T01:24:10;10.18;;;4.60;;
577;SDS011;275;48.492;9.214;2023-05-25T01:26:47;7.70;;;4.22;;
577;SDS011;275;48.492;9.214;2023-05-25T01:29:22;6.43;;;3.85;;
577;SDS011;275;48.492;9.214;2023-05-25T01:31:53;6.43;;;4.53;;
577;SDS011;275;48.492;9.214;2023-05-25T01:34:22;10.02;;;4.78;;
577;SDS011;275;48.492;9.214;2023-05-25T01:36:51;10.10;;;4.40;;
577;SDS011;275;48.492;9.214;2023-05-25T01:39:19;11.85;;;4.65;;
577;SDS011;275;48.492;9.214;2023-05-25T01:41:46;7.50;;;3.90;;
577;SDS011;275;48.492;9.214;2023-05-25T01:44:13;9.98;;;4.28;;
577;SDS011;275;48.492;9.214;2023-05-25T01:46:40;10.20;;;4.53;;
577;SDS011;275;48.492;9.214;2023-05-25T01:49:11;11.38;;;4.68;;
577;SDS011;275;48.492;9.214;2023-05-25T01:51:46;9.73;;;4.35;;
577;SDS011;275;48.492;9.214;2023-05-25T01:54:23;8.27;;;4.15;;
577;SDS011;275;48.492;9.214;2023-05-25T01:56:55;8.43;;;4.30;;
577;SDS011;275;48.492;9.214;2023-05-25T01:59:26;6.55;;;3.92;;
577;SDS011;275;48.492;9.214;2023-05-25T02:01:54;6.13;;;3.92;;
577;SDS011;275;48.492;9.214;2023-05-25T02:04:23;7.07;;;4.38;;
577;SDS011;275;48.492;9.214;2023-05-25T02:06:53;8.52;;;4.20;;
577;SDS011;275;48.492;9.214;2023-05-25T02:09:20;9.35;;;5.55;;
577;SDS011;275;48.492;9.214;2023-05-25T02:11:47;9.60;;;5.03;;
577;SDS011;275;48.492;9.214;2023-05-25T02:14:14;7.70;;;3.88;;
577;SDS011;275;48.492;9.214;2023-05-25T02:16:41;8.80;;;4.32;;
577;SDS011;275;48.492;9.214;2023-05-25T02:19:10;9.48;;;4.93;;
577;SDS011;275;48.492;9.214;2023-05-25T02:21:38;7.90;;;4.40;;
577;SDS011;275;48.492;9.214;2023-05-25T02:24:07;7.93;;;4.55;;
577;SDS011;275;48.492;9.214;2023-05-25T02:26:34;9.65;;;4.30;;
577;SDS011;275;48.492;9.214;2023-05-25T02:29:01;8.27;;;4.53;;
577;SDS011;275;48.492;9.214;2023-05-25T02:31:28;8.50;;;5.55;;
577;SDS011;275;48.492;9.214;2023-05-25T02:33:55;8.98;;;4.60;;
577;SDS011;275;48.492;9.214;2023-05-25T02:36:22;8.13;;;4.38;;
577;SDS011;275;48.492;9.214;2023-05-25T02:38:50;7.90;;;4.20;;
577;SDS011;275;48.492;9.214;2023-05-25T02:41:24;9.35;;;5.15;;
577;SDS011;275;48.492;9.214;2023-05-25T02:43:51;9.93;;;4.75;;
577;SDS011;275;48.492;9.214;2023-05-25T02:46:18;6.75;;;4.10;;
577;SDS011;275;48.492;9.214;2023-05-25T02:48:46;10.80;;;5.20;;
577;SDS011;275;48.492;9.214;2023-05-25T02:51:13;9.32;;;5.00;;
577;SDS011;275;48.492;9.214;2023-05-25T02:53:40;6.95;;;4.63;;
577;SDS011;275;48.492;9.214;2023-05-25T02:56:07;7.15;;;4.13;;
577;SDS011;275;48.492;9.214;2023-05-25T02:58:36;6.75;;;4.40;;
577;SDS011;275;48.492;9.214;2023-05-25T03:01:03;15.30;;;5.55;;
577;SDS011;275;48.492;9.214;2023-05-25T03:03:34;9.43;;;5.55;;
577;SDS011;275;48.492;9.214;2023-05-25T03:06:01;8.82;;;5.13;;
577;SDS011;275;48.492;9.214;2023-05-25T03:08:28;7.78;;;4.90;;
577;SDS011;275;48.492;9.214;2023-05-25T03:10:55;9.40;;;4.93;;
577;SDS011;275;48.492;9.214;2023-05-25T03:13:22;8.70;;;5.35;;
577;SDS011;275;48.492;9.214;2023-05-25T03:15:50;8.38;;;5.25;;
577;SDS011;275;48.492;9.214;2023-05-25T03:18:17;9.50;;;5.05;;
577;SDS011;275;48.492;9.214;2023-05-25T03:20:43;7.80;;;5.07;;
577;SDS011;275;48.492;9.214;2023-05-25T03:23:10;7.85;;;5.03;;
577;SDS011;275;48.492;9.214;2023-05-25T03:25:37;7.78;;;4.47;;
577;SDS011;275;48.492;9.214;2023-05-25T03:28:04;8.48;;;5.43;;
577;SDS011;275;48.492;9.214;2023-05-25T03:30:31;10.52;;;5.03;;
577;SDS011;275;48.492;9.214;2023-05-25T03:32:59;7.85;;;5.20;;
577;SDS011;275;48.492;9.214;2023-05-25T03:35:26;9.43;;;4.53;;
577;SDS011;275;48.492;9.214;2023-05-25T03:37:52;9.63;;;4.95;;
577;SDS011;275;48.492;9.214;2023-05-25T03:40:19;8.73;;;4.70;;
577;SDS011;275;48.492;9.214;2023-05-25T03:42:46;12.10;;;5.30;;
577;SDS011;275;48.492;9.214;2023-05-25T03:45:13;7.75;;;4.72;;
577;SDS011;275;48.492;9.214;2023-05-25T03:47:40;8.45;;;5.32;;
577;SDS011;275;48.492;9.214;2023-05-25T03:50:08;12.02;;;5.53;;
577;SDS011;275;48.492;9.214;2023-05-25T03:52:36;9.02;;;5.20;;
577;SDS011;275;48.492;9.214;2023-05-25T03:55:03;8.35;;;5.10;;
577;SDS011;275;48.492;9.214;2023-05-25T03:57:30;10.13;;;6.05;;
577;SDS011;275;48.492;9.214;2023-05-25T03:59:57;9.88;;;4.95;;
577;SDS011;275;48.492;9.214;2023-05-25T04:02:24;8.35;;;5.40;;
577;SDS011;275;48.492;9.214;2023-05-25T04:04:51;13.30;;;6.20;;
577;SDS011;275;48.492;9.214;2023-05-25T04:07:19;11.20;;;5.80;;
577;SDS011;275;48.492;9.214;2023-05-25T04:09:46;7.97;;;5.50;;
577;SDS011;275;48.492;9.214;2023-05-25T04:12:13;8.90;;;5.20;;
577;SDS011;275;48.492;9.214;2023-05-25T04:14:39;10.13;;;5.25;;
577;SDS011;275;48.492;9.214;2023-05-25T04:17:07;9.88;;;5.38;;
577;SDS011;275;48.492;9.214;2023-05-25T04:19:34;10.52;;;5.95;;
577;SDS011;275;48.492;9.214;2023-05-25T04:22:01;10.43;;;5.63;;
577;SDS011;275;48.492;9.214;2023-05-25T04:24:29;6.85;;;4.45;;
577;SDS011;275;48.492;9.214;2023-05-25T04:26:56;14.65;;;7.10;;
577;SDS011;275;48.492;9.214;2023-05-25T04:29:23;9.73;;;5.50;;
577;SDS011;275;48.492;9.214;2023-05-25T04:31:51;11.05;;;5.45;;
577;SDS011;275;48.492;9.214;2023-05-25T04:34:18;8.90;;;4.90;;
577;SDS011;275;48.492;9.214;2023-05-25T04:36:45;7.28;;;5.05;;
577;SDS011;275;48.492;9.214;2023-05-25T04:39:12;7.45;;;5.10;;
577;SDS011;275;48.492;9.214;2023-05-25T04:41:41;11.30;;;5.37;;
577;SDS011;275;48.492;9.214;2023-05-25T04:44:08;9.07;;;4.80;;
577;SDS011;275;48.492;9.214;2023-05-25T04:46:35;10.00;;;5.00;;
577;SDS011;275;48.492;9.214;2023-05-25T04:49:02;9.37;;;5.40;;
577;SDS011;275;48.492;9.214;2023-05-25T04:51:30;9.13;;;4.87;;
577;SDS011;275;48.492;9.214;2023-05-25T04:53:57;7.83;;;5.40;;
577;SDS011;275;48.492;9.214;2023-05-25T04:56:24;7.70;;;4.63;;
577;SDS011;275;48.492;9.214;2023-05-25T04:58:52;10.93;;;5.47;;
577;SDS011;275;48.492;9.214;2023-05-25T05:01:19;11.10;;;5.23;;
577;SDS011;275;48.492;9.214;2023-05-25T05:03:46;8.40;;;4.90;;
577;SDS011;275;48.492;9.214;2023-05-25T05:06:13;7.90;;;4.90;;
577;SDS011;275;48.492;9.214;2023-05-25T05:08:40;10.83;;;5.20;;
577;SDS011;275;48.492;9.214;2023-05-25T05:11:07;8.57;;;4.77;;
577;SDS011;275;48.492;9.214;2023-05-25T05:13:34;12.63;;;5.80;;
577;SDS011;275;48.492;9.214;2023-05-25T05:16:02;8.60;;;4.87;;
577;SDS011;275;48.492;9.214;2023-05-25T05:18:29;8.37;;;4.83;;
577;SDS011;275;48.492;9.214;2023-05-25T05:20:56;9.37;;;5.30;;
577;SDS011;275;48.492;9.214;2023-05-25T05:23:23;10.40;;;5.50;;
577;SDS011;275;48.492;9.214;2023-05-25T05:25:50;13.73;;;6.07;;
577;SDS011;275;48.492;9.214;2023-05-25T05:28:17;8.47;;;5.43;;
577;SDS011;275;48.492;9.214;2023-05-25T05:30:44;9.77;;;6.77;;
577;SDS011;275;48.492;9.214;2023-05-25T05:33:12;11.20;;;6.53;;
577;SDS011;275;48.492;9.214;2023-05-25T05:35:39;11.33;;;7.53;;
577;SDS011;275;48.492;9.214;2023-05-25T05:38:06;12.73;;;7.07;;
577;SDS011;275;48.492;9.214;2023-05-25T05:40:33;11.10;;;6.67;;
577;SDS011;275;48.492;9.214;2023-05-25T05:43:00;9.67;;;7.23;;
577;SDS011;275;48.492;9.214;2023-05-25T05:45:27;11.77;;;7.47;;
577;SDS011;275;48.492;9.214;2023-05-25T05:47:53;9.70;;;6.03;;
577;SDS011;275;48.492;9.214;2023-05-25T05:50:22;13.10;;;7.43;;
577;SDS011;275;48.492;9.214;2023-05-25T05:52:49;10.88;;;8.23;;
577;SDS011;275;48.492;9.214;2023-05-25T05:55:17;13.37;;;8.57;;
577;SDS011;275;48.492;9.214;2023-05-25T05:57:44;13.97;;;8.10;;
577;SDS011;275;48.492;9.214;2023-05-25T06:00:11;11.55;;;7.85;;
577;SDS011;275;48.492;9.214;2023-05-25T06:02:40;14.33;;;8.20;;
577;SDS011;275;48.492;9.214;2023-05-25T06:05:07;9.75;;;7.75;;
577;SDS011;275;48.492;9.214;2023-05-25T06:07:35;13.93;;;8.07;;
577;SDS011;275;48.492;9.214;2023-05-25T06:10:02;11.10;;;8.80;;
577;SDS011;275;48.492;9.214;2023-05-25T06:12:30;13.37;;;7.90;;
577;SDS011;275;48.492;9.214;2023-05-25T06:14:56;13.30;;;7.77;;
577;SDS011;275;48.492;9.214;2023-05-25T06:17:23;12.73;;;8.33;;
577;SDS011;275;48.492;9.214;2023-05-25T06:19:50;12.40;;;8.60;;
577;SDS011;275;48.492;9.214;2023-05-25T06:22:17;13.53;;;7.60;;
577;SDS011;275;48.492;9.214;2023-05-25T06:24:45;11.50;;;8.00;;
577;SDS011;275;48.492;9.214;2023-05-25T06:27:12;10.70;;;7.90;;
577;SDS011;275;48.492;9.214;2023-05-25T06:29:39;13.87;;;8.00;;
577;SDS011;275;48.492;9.214;2023-05-25T06:32:06;10.90;;;6.83;;
577;SDS011;275;48.492;9.214;2023-05-25T06:34:34;10.00;;;7.30;;
577;SDS011;275;48.492;9.214;2023-05-25T06:37:01;14.70;;;7.60;;
577;SDS011;275;48.492;9.214;2023-05-25T06:39:28;10.17;;;7.67;;
577;SDS011;275;48.492;9.214;2023-05-25T06:41:56;14.47;;;9.13;;
577;SDS011;275;48.492;9.214;2023-05-25T06:44:23;10.77;;;7.17;;
577;SDS011;275;48.492;9.214;2023-05-25T06:46:50;12.07;;;8.53;;
577;SDS011;275;48.492;9.214;2023-05-25T06:49:17;11.77;;;8.63;;
577;SDS011;275;48.492;9.214;2023-05-25T06:51:43;11.93;;;8.60;;
577;SDS011;275;48.492;9.214;2023-05-25T06:54:10;12.60;;;8.63;;
577;SDS011;275;48.492;9.214;2023-05-25T06:56:38;13.30;;;9.10;;
577;SDS011;275;48.492;9.214;2023-05-25T06:59:07;13.37;;;8.67;;
577;SDS011;275;48.492;9.214;2023-05-25T07:01:33;12.43;;;8.93;;
577;SDS011;275;48.492;9.214;2023-05-25T07:04:01;14.30;;;10.10;;
577;SDS011;275;48.492;9.214;2023-05-25T07:06:28;13.37;;;9.33;;
577;SDS011;275;48.492;9.214;2023-05-25T07:08:55;11.80;;;8.87;;
577;SDS011;275;48.492;9.214;2023-05-25T07:11:21;10.70;;;9.23;;
577;SDS011;275;48.492;9.214;2023-05-25T07:13:48;14.00;;;9.17;;
577;SDS011;275;48.492;9.214;2023-05-25T07:16:16;14.60;;;9.40;;
577;SDS011;275;48.492;9.214;2023-05-25T07:18:43;14.83;;;9.23;;
577;SDS011;275;48.492;9.214;2023-05-25T07:21:10;15.43;;;8.27;;
577;SDS011;275;48.492;9.214;2023-05-25T07:23:37;15.43;;;9.60;;
577;SDS011;275;48.492;9.214;2023-05-25T07:26:05;19.47;;;10.20;;
577;SDS011;275;48.492;9.214;2023-05-25T07:28:31;12.33;;;8.90;;
577;SDS011;275;48.492;9.214;2023-05-25T07:30:58;13.57;;;9.17;;
577;SDS011;275;48.492;9.214;2023-05-25T07:33:26;14.63;;;9.83;;
577;SDS011;275;48.492;9.214;2023-05-25T07:35:53;14.57;;;8.37;;
577;SDS011;275;48.492;9.214;2023-05-25T07:38:20;11.13;;;8.70;;
577;SDS011;275;48.492;9.214;2023-05-25T07:40:47;9.73;;;8.50;;
577;SDS011;275;48.492;9.214;2023-05-25T07:43:14;14.03;;;9.17;;
577;SDS011;275;48.492;9.214;2023-05-25T07:45:41;14.77;;;9.67;;
577;SDS011;275;48.492;9.214;2023-05-25T07:48:08;12.57;;;8.30;;
577;SDS011;275;48.492;9.214;2023-05-25T07:50:36;13.83;;;9.00;;
577;SDS011;275;48.492;9.214;2023-05-25T07:53:03;14.23;;;9.23;;
577;SDS011;275;48.492;9.214;2023-05-25T07:55:30;14.97;;;9.87;;
577;SDS011;275;48.492;9.214;2023-05-25T07:57:57;11.40;;;9.20;;
577;SDS011;275;48.492;9.214;2023-05-25T08:00:23;17.53;;;10.00;;
577;SDS011;275;48.492;9.214;2023-05-25T08:02:50;12.40;;;9.57;;
577;SDS011;275;48.492;9.214;2023-05-25T08:05:17;12.40;;;9.20;;
577;SDS011;275;48.492;9.214;2023-05-25T08:07:45;11.97;;;9.70;;
577;SDS011;275;48.492;9.214;2023-05-25T08:10:12;13.03;;;10.53;;
577;SDS011;275;48.492;9.214;2023-05-25T08:12:39;13.07;;;10.20;;
577;SDS011;275;48.492;9.214;2023-05-25T08:15:06;12.97;;;10.43;;
577;SDS011;275;48.492;9.214;2023-05-25T08:17:33;13.93;;;9.27;;
577;SDS011;275;48.492;9.214;2023-05-25T08:20:00;10.87;;;9.40;;
577;SDS011;275;48.492;9.214;2023-05-25T08:22:29;11.90;;;9.30;;
577;SDS011;275;48.492;9.214;2023-05-25T08:24:57;17.77;;;9.97;;
577;SDS011;275;48.492;9.214;2023-05-25T08:27:24;11.53;;;9.17;;
577;SDS011;275;48.492;9.214;2023-05-25T08:29:51;12.10;;;9.67;;
577;SDS011;275;48.492;9.214;2023-05-25T08:32:17;12.60;;;9.60;;
577;SDS011;275;48.492;9.214;2023-05-25T08:34:44;11.73;;;9.73;;
577;SDS011;275;48.492;9.214;2023-05-25T08:37:11;12.33;;;9.57;;
577;SDS011;275;48.492;9.214;2023-05-25T08:39:38;13.47;;;8.30;;
577;SDS011;275;48.492;9.214;2023-05-25T08:42:06;12.37;;;9.10;;
577;SDS011;275;48.492;9.214;2023-05-25T08:44:34;13.77;;;8.97;;
577;SDS011;275;48.492;9.214;2023-05-25T08:47:03;14.80;;;9.33;;
577;SDS011;275;48.492;9.214;2023-05-25T08:49:32;10.73;;;8.77;;
577;SDS011;275;48.492;9.214;2023-05-25T08:52:02;13.70;;;10.00;;
577;SDS011;275;48.492;9.214;2023-05-25T08:54:33;18.10;;;9.50;;
577;SDS011;275;48.492;9.214;2023-05-25T08:57:03;14.80;;;9.67;;
577;SDS011;275;48.492;9.214;2023-05-25T08:59:37;16.00;;;9.73;;
577;SDS011;275;48.492;9.214;2023-05-25T09:02:13;12.17;;;9.43;;
577;SDS011;275;48.492;9.214;2023-05-25T09:04:47;13.90;;;9.43;;
577;SDS011;275;48.492;9.214;2023-05-25T09:07:14;13.37;;;8.80;;
577;SDS011;275;48.492;9.214;2023-05-25T09:09:41;11.63;;;9.20;;
577;SDS011;275;48.492;9.214;2023-05-25T09:12:08;13.17;;;9.30;;
577;SDS011;275;48.492;9.214;2023-05-25T09:14:37;13.00;;;9.53;;
577;SDS011;275;48.492;9.214;2023-05-25T09:17:09;13.47;;;8.93;;
577;SDS011;275;48.492;9.214;2023-05-25T09:19:37;13.80;;;10.00;;
577;SDS011;275;48.492;9.214;2023-05-25T09:22:03;11.60;;;9.10;;
577;SDS011;275;48.492;9.214;2023-05-25T09:24:30;13.53;;;8.87;;
577;SDS011;275;48.492;9.214;2023-05-25T09:26:58;9.93;;;8.30;;
577;SDS011;275;48.492;9.214;2023-05-25T09:29:25;13.07;;;7.83;;
577;SDS011;275;48.492;9.214;2023-05-25T09:31:53;10.70;;;8.07;;
577;SDS011;275;48.492;9.214;2023-05-25T09:34:21;12.83;;;8.13;;
577;SDS011;275;48.492;9.214;2023-05-25T09:36:48;11.20;;;8.70;;
577;SDS011;275;48.492;9.214;2023-05-25T09:39:15;12.10;;;8.57;;
577;SDS011;275;48.492;9.214;2023-05-25T09:41:42;11.93;;;7.97;;
577;SDS011;275;48.492;9.214;2023-05-25T09:44:09;17.57;;;9.77;;
577;SDS011;275;48.492;9.214;2023-05-25T09:46:36;12.23;;;9.00;;
577;SDS011;275;48.492;9.214;2023-05-25T09:49:05;11.60;;;8.87;;
577;SDS011;275;48.492;9.214;2023-05-25T09:51:33;14.17;;;10.00;;
577;SDS011;275;48.492;9.214;2023-05-25T09:54:01;12.37;;;10.20;;
577;SDS011;275;48.492;9.214;2023-05-25T09:56:30;14.83;;;8.60;;
577;SDS011;275;48.492;9.214;2023-05-25T09:58:57;14.00;;;9.90;;
577;SDS011;275;48.492;9.214;2023-05-25T10:01:25;14.10;;;8.20;;
577;SDS011;275;48.492;9.214;2023-05-25T10:03:53;10.47;;;9.13;;
577;SDS011;275;48.492;9.214;2023-05-25T10:06:24;9.90;;;8.90;;
577;SDS011;275;48.492;9.214;2023-05-25T10:08:51;10.47;;;8.70;;
577;SDS011;275;48.492;9.214;2023-05-25T10:11:24;11.10;;;8.90;;
577;SDS011;275;48.492;9.214;2023-05-25T10:13:53;11.00;;;8.50;;
577;SDS011;275;48.492;9.214;2023-05-25T10:16:23;10.60;;;8.30;;
577;SDS011;275;48.492;9.214;2023-05-25T10:18:54;11.37;;;9.27;;
577;SDS011;275;48.492;9.214;2023-05-25T10:21:28;12.70;;;9.80;;
577;SDS011;275;48.492;9.214;2023-05-25T10:23:58;9.93;;;8.90;;
577;SDS011;275;48.492;9.214;2023-05-25T10:26:30;12.27;;;8.60;;
577;SDS011;275;48.492;9.214;2023-05-25T10:29:01;12.07;;;9.83;;
577;SDS011;275;48.492;9.214;2023-05-25T10:31:29;12.40;;;10.20;;
577;SDS011;275;48.492;9.214;2023-05-25T10:33:58;11.47;;;8.00;;
577;SDS011;275;48.492;9.214;2023-05-25T10:36:25;10.73;;;8.40;;
577;SDS011;275;48.492;9.214;2023-05-25T10:38:54;10.60;;;8.70;;
577;SDS011;275;48.492;9.214;2023-05-25T10:41:22;11.03;;;9.17;;
577;SDS011;275;48.492;9.214;2023-05-25T10:43:49;13.17;;;9.27;;
577;SDS011;275;48.492;9.214;2023-05-25T10:46:17;11.80;;;8.43;;
577;SDS011;275;48.492;9.214;2023-05-25T10:48:45;11.30;;;8.50;;
577;SDS011;275;48.492;9.214;2023-05-25T10:51:13;11.63;;;9.93;;
577;SDS011;275;48.492;9.214;2023-05-25T10:53:43;11.40;;;9.30;;
577;SDS011;275;48.492;9.214;2023-05-25T10:56:11;10.50;;;8.40;;
577;SDS011;275;48.492;9.214;2023-05-25T10:58:40;13.00;;;8.77;;
577;SDS011;275;48.492;9.214;2023-05-25T11:01:09;12.10;;;8.83;;
577;SDS011;275;48.492;9.214;2023-05-25T11:03:46;10.27;;;8.90;;
577;SDS011;275;48.492;9.214;2023-05-25T11:06:19;13.00;;;9.23;;
577;SDS011;275;48.492;9.214;2023-05-25T11:08:49;11.07;;;8.57;;
577;SDS011;275;48.492;9.214;2023-05-25T11:11:19;11.17;;;8.33;;
577;SDS011;275;48.492;9.214;2023-05-25T11:13:46;11.60;;;7.57;;
577;SDS011;275;48.492;9.214;2023-05-25T11:16:15;9.43;;;8.13;;
577;SDS011;275;48.492;9.214;2023-05-25T11:18:44;11.83;;;8.40;;
577;SDS011;275;48.492;9.214;2023-05-25T11:21:16;10.70;;;8.33;;
577;SDS011;275;48.492;9.214;2023-05-25T11:23:52;10.77;;;8.30;;
577;SDS011;275;48.492;9.214;2023-05-25T11:26:21;9.27;;;8.33;;
577;SDS011;275;48.492;9.214;2023-05-25T11:28:49;10.00;;;8.20;;
577;SDS011;275;48.492;9.214;2023-05-25T11:31:20;10.07;;;8.80;;
577;SDS011;275;48.492;9.214;2023-05-25T11:33:55;9.67;;;8.57;;
577;SDS011;275;48.492;9.214;2023-05-25T11:36:22;14.70;;;9.27;;
577;SDS011;275;48.492;9.214;2023-05-25T11:38:51;10.27;;;8.47;;
577;SDS011;275;48.492;9.214;2023-05-25T11:41:22;10.47;;;8.77;;
577;SDS011;275;48.492;9.214;2023-05-25T11:43:50;9.43;;;8.37;;
577;SDS011;275;48.492;9.214;2023-05-25T11:46:20;11.40;;;8.67;;
577;SDS011;275;48.492;9.214;2023-05-25T11:48:48;12.87;;;9.30;;
577;SDS011;275;48.492;9.214;2023-05-25T11:51:17;9.80;;;8.00;;
577;SDS011;275;48.492;9.214;2023-05-25T11:53:46;9.57;;;8.23;;
577;SDS011;275;48.492;9.214;2023-05-25T11:56:15;11.83;;;8.77;;
577;SDS011;275;48.492;9.214;2023-05-25T11:58:43;14.27;;;8.17;;
577;SDS011;275;48.492;9.214;2023-05-25T12:01:11;11.13;;;8.40;;
577;SDS011;275;48.492;9.214;2023-05-25T12:03:39;12.00;;;8.40;;
577;SDS011;275;48.492;9.214;2023-05-25T12:06:06;11.20;;;7.93;;
577;SDS011;275;48.492;9.214;2023-05-25T12:08:33;11.40;;;8.10;;
577;SDS011;275;48.492;9.214;2023-05-25T12:11:00;11.70;;;7.70;;
577;SDS011;275;48.492;9.214;2023-05-25T12:13:29;12.70;;;8.87;;
577;SDS011;275;48.492;9.214;2023-05-25T12:15:56;11.47;;;8.53;;
577;SDS011;275;48.492;9.214;2023-05-25T12:18:25;9.53;;;8.50;;
577;SDS011;275;48.492;9.214;2023-05-25T12:20:52;12.30;;;8.30;;
577;SDS011;275;48.492;9.214;2023-05-25T12:23:19;15.93;;;8.33;;
577;SDS011;275;48.492;9.214;2023-05-25T12:25:46;13.20;;;9.17;;
577;SDS011;275;48.492;9.214;2023-05-25T12:28:14;11.83;;;8.50;;
577;SDS011;275;48.492;9.214;2023-05-25T12:30:42;12.60;;;8.07;;
577;SDS011;275;48.492;9.214;2023-05-25T12:33:11;13.50;;;9.10;;
577;SDS011;275;48.492;9.214;2023-05-25T12:35:45;10.17;;;8.43;;
577;SDS011;275;48.492;9.214;2023-05-25T12:38:12;11.00;;;7.47;;
577;SDS011;275;48.492;9.214;2023-05-25T12:40:40;10.90;;;8.93;;
577;SDS011;275;48.492;9.214;2023-05-25T12:43:07;10.47;;;9.37;;
577;SDS011;275;48.492;9.214;2023-05-25T12:45:38;13.20;;;8.63;;
577;SDS011;275;48.492;9.214;2023-05-25T12:48:06;11.70;;;8.37;;
577;SDS011;275;48.492;9.214;2023-05-25T12:50:33;12.10;;;9.13;;
577;SDS011;275;48.492;9.214;2023-05-25T12:53:00;11.10;;;8.10;;
577;SDS011;275;48.492;9.214;2023-05-25T12:55:28;10.90;;;8.80;;
577;SDS011;275;48.492;9.214;2023-05-25T12:57:57;12.00;;;7.73;;
577;SDS011;275;48.492;9.214;2023-05-25T13:00:30;12.40;;;9.10;;
577;SDS011;275;48.492;9.214;2023-05-25T13:02:58;11.30;;;8.20;;
577;SDS011;275;48.492;9.214;2023-05-25T13:05:28;12.43;;;9.30;;
577;SDS011;275;48.492;9.214;2023-05-25T13:07:56;12.20;;;8.73;;
577;SDS011;275;48.492;9.214;2023-05-25T13:10:24;10.63;;;8.60;;
577;SDS011;275;48.492;9.214;2023-05-25T13:12:51;11.87;;;8.70;;
577;SDS011;275;48.492;9.214;2023-05-25T13:15:21;10.37;;;8.13;;
577;SDS011;275;48.492;9.214;2023-05-25T13:17:48;10.93;;;8.90;;
577;SDS011;275;48.492;9.214;2023-05-25T13:20:16;10.77;;;8.20;;
577;SDS011;275;48.492;9.214;2023-05-25T13:22:46;11.40;;;7.80;;
577;SDS011;275;48.492;9.214;2023-05-25T13:25:15;10.97;;;8.10;;
577;SDS011;275;48.492;9.214;2023-05-25T13:27:43;9.60;;;8.30;;
577;SDS011;275;48.492;9.214;2023-05-25T13:30:11;14.20;;;8.60;;
577;SDS011;275;48.492;9.214;2023-05-25T13:32:38;12.03;;;8.60;;
577;SDS011;275;48.492;9.214;2023-05-25T13:35:07;10.20;;;7.80;;
577;SDS011;275;48.492;9.214;2023-05-25T13:37:37;10.87;;;8.43;;
577;SDS011;275;48.492;9.214;2023-05-25T13:40:06;10.30;;;7.83;;
577;SDS011;275;48.492;9.214;2023-05-25T13:42:33;12.73;;;9.57;;
577;SDS011;275;48.492;9.214;2023-05-25T13:45:00;11.63;;;9.10;;
577;SDS011;275;48.492;9.214;2023-05-25T13:47:27;12.70;;;8.10;;
577;SDS011;275;48.492;9.214;2023-05-25T13:49:54;8.40;;;7.00;;
577;SDS011;275;48.492;9.214;2023-05-25T13:52:21;10.80;;;8.10;;
577;SDS011;275;48.492;9.214;2023-05-25T13:54:48;12.40;;;8.60;;
577;SDS011;275;48.492;9.214;2023-05-25T13:57:16;13.00;;;7.83;;
577;SDS011;275;48.492;9.214;2023-05-25T13:59:43;16.23;;;8.03;;
577;SDS011;275;48.492;9.214;2023-05-25T14:02:10;41.60;;;10.23;;
577;SDS011;275;48.492;9.214;2023-05-25T14:04:36;18.30;;;9.23;;
577;SDS011;275;48.492;9.214;2023-05-25T14:07:03;13.77;;;8.33;;
577;SDS011;275;48.492;9.214;2023-05-25T14:09:30;38.40;;;10.80;;
577;SDS011;275;48.492;9.214;2023-05-25T14:11:57;27.53;;;10.10;;
577;SDS011;275;48.492;9.214;2023-05-25T14:14:25;19.73;;;9.20;;
577;SDS011;275;48.492;9.214;2023-05-25T14:16:52;31.87;;;10.07;;
577;SDS011;275;48.492;9.214;2023-05-25T14:19:19;9.30;;;8.13;;
577;SDS011;275;48.492;9.214;2023-05-25T14:21:46;10.67;;;8.23;;
577;SDS011;275;48.492;9.214;2023-05-25T14:24:12;21.73;;;8.50;;
577;SDS011;275;48.492;9.214;2023-05-25T14:26:39;13.27;;;8.00;;
577;SDS011;275;48.492;9.214;2023-05-25T14:29:07;9.70;;;7.70;;
577;SDS011;275;48.492;9.214;2023-05-25T14:31:36;11.40;;;7.90;;
577;SDS011;275;48.492;9.214;2023-05-25T14:34:02;10.00;;;7.43;;
577;SDS011;275;48.492;9.214;2023-05-25T14:36:29;8.87;;;7.57;;
577;SDS011;275;48.492;9.214;2023-05-25T14:38:56;13.53;;;7.83;;
577;SDS011;275;48.492;9.214;2023-05-25T14:41:23;12.00;;;7.87;;
577;SDS011;275;48.492;9.214;2023-05-25T14:43:50;7.77;;;6.73;;
577;SDS011;275;48.492;9.214;2023-05-25T14:46:17;21.20;;;8.13;;
577;SDS011;275;48.492;9.214;2023-05-25T14:48:45;9.30;;;7.00;;
577;SDS011;275;48.492;9.214;2023-05-25T14:51:12;18.40;;;8.73;;
577;SDS011;275;48.492;9.214;2023-05-25T14:53:39;19.20;;;8.40;;
577;SDS011;275;48.492;9.214;2023-05-25T14:56:06;22.57;;;8.83;;
577;SDS011;275;48.492;9.214;2023-05-25T14:58:33;10.67;;;6.97;;
577;SDS011;275;48.492;9.214;2023-05-25T15:01:00;11.30;;;7.80;;
577;SDS011;275;48.492;9.214;2023-05-25T15:03:27;10.83;;;7.60;;
577;SDS011;275;48.492;9.214;2023-05-25T15:05:55;13.50;;;7.60;;
577;SDS011;275;48.492;9.214;2023-05-25T15:08:22;9.53;;;6.70;;
577;SDS011;275;48.492;9.214;2023-05-25T15:10:49;11.33;;;6.67;;
577;SDS011;275;48.492;9.214;2023-05-25T15:13:16;13.00;;;7.50;;
577;SDS011;275;48.492;9.214;2023-05-25T15:15:46;15.13;;;8.57;;
577;SDS011;275;48.492;9.214;2023-05-25T15:18:13;11.73;;;7.40;;
577;SDS011;275;48.492;9.214;2023-05-25T15:20:40;10.77;;;7.23;;
577;SDS011;275;48.492;9.214;2023-05-25T15:23:11;8.70;;;7.20;;
577;SDS011;275;48.492;9.214;2023-05-25T15:25:38;12.60;;;6.80;;
577;SDS011;275;48.492;9.214;2023-05-25T15:28:05;9.50;;;6.77;;
577;SDS011;275;48.492;9.214;2023-05-25T15:30:32;18.63;;;7.43;;
577;SDS011;275;48.492;9.214;2023-05-25T15:32:59;12.10;;;7.40;;
577;SDS011;275;48.492;9.214;2023-05-25T15:35:26;10.20;;;6.37;;
577;SDS011;275;48.492;9.214;2023-05-25T15:37:56;11.00;;;8.77;;
577;SDS011;275;48.492;9.214;2023-05-25T15:40:24;7.97;;;6.70;;